sensor_id;sensor_type;location;lat;lon;timestamp;P1;durP1;ratioP1;P2;durP2;ratioP2
13649;SDS011;6898;50.918;4.688;2022-10-17T00:00:51;16.63;;;12.87;;
13649;SDS011;6898;50.918;4.688;2022-10-17T00:03:21;14.93;;;13.25;;
13649;SDS011;6898;50.918;4.688;2022-10-17T00:05:49;14.60;;;13.10;;
13649;SDS011;6898;50.918;4.688;2022-10-17T00:08:18;14.80;;;13.18;;
13649;SDS011;6898;50.918;4.688;2022-10-17T00:10:54;14.77;;;13.25;;
13649;SDS011;6898;50.918;4.688;2022-10-17T00:13:22;15.63;;;12.90;;
13649;SDS011;6898;50.918;4.688;2022-10-17T00:15:51;13.90;;;12.50;;
13649;SDS011;6898;50.918;4.688;2022-10-17T00:18:20;14.20;;;12.70;;
13649;SDS011;6898;50.918;4.688;2022-10-17T00:20:49;15.57;;;13.57;;
13649;SDS011;6898;50.918;4.688;2022-10-17T00:23:18;15.95;;;13.93;;
13649;SDS011;6898;50.918;4.688;2022-10-17T00:25:46;16.15;;;13.55;;
13649;SDS011;6898;50.918;4.688;2022-10-17T00:28:14;14.95;;;12.80;;
13649;SDS011;6898;50.918;4.688;2022-10-17T00:30:43;16.23;;;13.23;;
13649;SDS011;6898;50.918;4.688;2022-10-17T00:33:11;16.13;;;13.25;;
13649;SDS011;6898;50.918;4.688;2022-10-17T00:35:39;14.45;;;12.95;;
13649;SDS011;6898;50.918;4.688;2022-10-17T00:38:09;14.02;;;12.32;;
13649;SDS011;6898;50.918;4.688;2022-10-17T00:40:38;14.10;;;12.57;;
13649;SDS011;6898;50.918;4.688;2022-10-17T00:43:08;14.65;;;12.07;;
13649;SDS011;6898;50.918;4.688;2022-10-17T00:45:38;14.80;;;12.38;;
13649;SDS011;6898;50.918;4.688;2022-10-17T00:48:07;14.48;;;11.85;;
13649;SDS011;6898;50.918;4.688;2022-10-17T00:50:40;15.18;;;11.85;;
13649;SDS011;6898;50.918;4.688;2022-10-17T00:53:11;13.25;;;11.73;;
13649;SDS011;6898;50.918;4.688;2022-10-17T00:55:41;14.27;;;12.15;;
13649;SDS011;6898;50.918;4.688;2022-10-17T00:58:11;13.95;;;11.98;;
13649;SDS011;6898;50.918;4.688;2022-10-17T01:00:40;13.18;;;11.75;;
13649;SDS011;6898;50.918;4.688;2022-10-17T01:03:10;13.33;;;12.00;;
13649;SDS011;6898;50.918;4.688;2022-10-17T01:05:39;15.00;;;11.57;;
13649;SDS011;6898;50.918;4.688;2022-10-17T01:08:08;13.10;;;11.80;;
13649;SDS011;6898;50.918;4.688;2022-10-17T01:10:41;13.45;;;11.73;;
13649;SDS011;6898;50.918;4.688;2022-10-17T01:13:13;14.35;;;12.02;;
13649;SDS011;6898;50.918;4.688;2022-10-17T01:15:48;14.40;;;12.05;;
13649;SDS011;6898;50.918;4.688;2022-10-17T01:18:23;14.10;;;11.48;;
13649;SDS011;6898;50.918;4.688;2022-10-17T01:23:47;12.73;;;11.03;;
13649;SDS011;6898;50.918;4.688;2022-10-17T01:26:24;15.10;;;11.50;;
13649;SDS011;6898;50.918;4.688;2022-10-17T01:31:44;14.77;;;11.50;;
13649;SDS011;6898;50.918;4.688;2022-10-17T01:34:15;12.50;;;11.00;;
13649;SDS011;6898;50.918;4.688;2022-10-17T01:36:47;12.68;;;11.10;;
13649;SDS011;6898;50.918;4.688;2022-10-17T01:39:20;12.30;;;11.07;;
13649;SDS011;6898;50.918;4.688;2022-10-17T01:41:50;12.90;;;10.70;;
13649;SDS011;6898;50.918;4.688;2022-10-17T01:44:20;12.40;;;10.40;;
13649;SDS011;6898;50.918;4.688;2022-10-17T01:46:53;14.20;;;10.52;;
13649;SDS011;6898;50.918;4.688;2022-10-17T01:49:24;12.00;;;10.77;;
13649;SDS011;6898;50.918;4.688;2022-10-17T01:51:55;11.55;;;10.10;;
13649;SDS011;6898;50.918;4.688;2022-10-17T01:54:24;12.30;;;10.40;;
13649;SDS011;6898;50.918;4.688;2022-10-17T01:56:55;10.87;;;9.70;;
13649;SDS011;6898;50.918;4.688;2022-10-17T01:59:25;12.18;;;9.80;;
13649;SDS011;6898;50.918;4.688;2022-10-17T02:01:57;11.50;;;9.68;;
13649;SDS011;6898;50.918;4.688;2022-10-17T02:04:26;10.98;;;9.50;;
13649;SDS011;6898;50.918;4.688;2022-10-17T02:06:55;11.73;;;9.40;;
13649;SDS011;6898;50.918;4.688;2022-10-17T02:09:23;9.80;;;8.80;;
13649;SDS011;6898;50.918;4.688;2022-10-17T02:14:46;11.95;;;9.10;;
13649;SDS011;6898;50.918;4.688;2022-10-17T02:17:21;12.85;;;9.02;;
13649;SDS011;6898;50.918;4.688;2022-10-17T02:19:54;12.63;;;8.93;;
13649;SDS011;6898;50.918;4.688;2022-10-17T02:22:29;10.70;;;9.05;;
13649;SDS011;6898;50.918;4.688;2022-10-17T02:25:02;12.85;;;8.63;;
13649;SDS011;6898;50.918;4.688;2022-10-17T02:27:34;9.60;;;8.27;;
13649;SDS011;6898;50.918;4.688;2022-10-17T02:30:06;12.45;;;8.63;;
13649;SDS011;6898;50.918;4.688;2022-10-17T02:32:37;10.43;;;8.48;;
13649;SDS011;6898;50.918;4.688;2022-10-17T02:35:10;10.10;;;8.38;;
13649;SDS011;6898;50.918;4.688;2022-10-17T02:37:39;10.88;;;8.68;;
13649;SDS011;6898;50.918;4.688;2022-10-17T02:40:09;10.75;;;8.02;;
13649;SDS011;6898;50.918;4.688;2022-10-17T02:42:39;10.07;;;8.23;;
13649;SDS011;6898;50.918;4.688;2022-10-17T02:45:10;12.20;;;8.40;;
13649;SDS011;6898;50.918;4.688;2022-10-17T02:47:42;11.52;;;8.07;;
13649;SDS011;6898;50.918;4.688;2022-10-17T02:50:11;10.73;;;8.10;;
13649;SDS011;6898;50.918;4.688;2022-10-17T02:52:41;11.80;;;8.10;;
13649;SDS011;6898;50.918;4.688;2022-10-17T02:55:15;8.80;;;7.90;;
13649;SDS011;6898;50.918;4.688;2022-10-17T02:57:45;11.35;;;8.10;;
13649;SDS011;6898;50.918;4.688;2022-10-17T03:00:16;10.20;;;8.13;;
13649;SDS011;6898;50.918;4.688;2022-10-17T03:02:46;9.65;;;7.57;;
13649;SDS011;6898;50.918;4.688;2022-10-17T03:05:16;10.07;;;8.02;;
13649;SDS011;6898;50.918;4.688;2022-10-17T03:07:45;10.55;;;8.32;;
13649;SDS011;6898;50.918;4.688;2022-10-17T03:10:13;9.13;;;8.20;;
13649;SDS011;6898;50.918;4.688;2022-10-17T03:12:42;10.45;;;8.25;;
13649;SDS011;6898;50.918;4.688;2022-10-17T03:15:10;10.10;;;8.20;;
13649;SDS011;6898;50.918;4.688;2022-10-17T03:17:39;11.55;;;8.23;;
13649;SDS011;6898;50.918;4.688;2022-10-17T03:20:09;9.90;;;8.00;;
13649;SDS011;6898;50.918;4.688;2022-10-17T03:22:38;9.20;;;7.78;;
13649;SDS011;6898;50.918;4.688;2022-10-17T03:25:06;10.73;;;8.07;;
13649;SDS011;6898;50.918;4.688;2022-10-17T03:27:35;9.07;;;8.13;;
13649;SDS011;6898;50.918;4.688;2022-10-17T03:30:04;8.57;;;7.57;;
13649;SDS011;6898;50.918;4.688;2022-10-17T03:32:32;11.35;;;8.10;;
13649;SDS011;6898;50.918;4.688;2022-10-17T03:35:01;9.05;;;7.60;;
13649;SDS011;6898;50.918;4.688;2022-10-17T03:37:31;9.17;;;7.73;;
13649;SDS011;6898;50.918;4.688;2022-10-17T03:39:59;11.75;;;7.88;;
13649;SDS011;6898;50.918;4.688;2022-10-17T03:42:28;9.88;;;7.20;;
13649;SDS011;6898;50.918;4.688;2022-10-17T03:44:56;9.65;;;7.15;;
13649;SDS011;6898;50.918;4.688;2022-10-17T03:47:24;9.93;;;7.30;;
13649;SDS011;6898;50.918;4.688;2022-10-17T03:49:53;9.55;;;7.50;;
13649;SDS011;6898;50.918;4.688;2022-10-17T03:52:21;9.98;;;7.00;;
13649;SDS011;6898;50.918;4.688;2022-10-17T03:54:51;8.05;;;6.85;;
13649;SDS011;6898;50.918;4.688;2022-10-17T03:57:20;8.52;;;7.18;;
13649;SDS011;6898;50.918;4.688;2022-10-17T03:59:48;9.63;;;7.28;;
13649;SDS011;6898;50.918;4.688;2022-10-17T04:02:17;8.70;;;7.20;;
13649;SDS011;6898;50.918;4.688;2022-10-17T04:04:46;8.55;;;6.95;;
13649;SDS011;6898;50.918;4.688;2022-10-17T04:07:14;9.38;;;7.18;;
13649;SDS011;6898;50.918;4.688;2022-10-17T04:09:42;8.52;;;7.20;;
13649;SDS011;6898;50.918;4.688;2022-10-17T04:12:12;9.10;;;7.30;;
13649;SDS011;6898;50.918;4.688;2022-10-17T04:14:41;9.63;;;7.20;;
13649;SDS011;6898;50.918;4.688;2022-10-17T04:17:09;8.55;;;7.03;;
13649;SDS011;6898;50.918;4.688;2022-10-17T04:19:38;8.17;;;7.20;;
13649;SDS011;6898;50.918;4.688;2022-10-17T04:22:06;9.50;;;6.85;;
13649;SDS011;6898;50.918;4.688;2022-10-17T04:24:34;8.98;;;7.00;;
13649;SDS011;6898;50.918;4.688;2022-10-17T04:27:05;8.40;;;6.75;;
13649;SDS011;6898;50.918;4.688;2022-10-17T04:29:34;8.48;;;7.13;;
13649;SDS011;6898;50.918;4.688;2022-10-17T04:32:03;9.40;;;6.93;;
13649;SDS011;6898;50.918;4.688;2022-10-17T04:34:31;8.43;;;6.60;;
13649;SDS011;6898;50.918;4.688;2022-10-17T04:37:00;10.30;;;7.00;;
13649;SDS011;6898;50.918;4.688;2022-10-17T04:39:28;7.85;;;6.90;;
13649;SDS011;6898;50.918;4.688;2022-10-17T04:41:57;10.27;;;6.80;;
13649;SDS011;6898;50.918;4.688;2022-10-17T04:44:25;9.50;;;7.15;;
13649;SDS011;6898;50.918;4.688;2022-10-17T04:46:57;8.68;;;6.85;;
13649;SDS011;6898;50.918;4.688;2022-10-17T04:49:25;10.02;;;6.68;;
13649;SDS011;6898;50.918;4.688;2022-10-17T04:51:54;8.20;;;6.80;;
13649;SDS011;6898;50.918;4.688;2022-10-17T04:54:22;8.98;;;6.80;;
13649;SDS011;6898;50.918;4.688;2022-10-17T04:56:51;10.05;;;6.75;;
13649;SDS011;6898;50.918;4.688;2022-10-17T04:59:19;9.27;;;6.90;;
13649;SDS011;6898;50.918;4.688;2022-10-17T05:01:47;10.68;;;6.78;;
13649;SDS011;6898;50.918;4.688;2022-10-17T05:04:17;7.97;;;6.85;;
13649;SDS011;6898;50.918;4.688;2022-10-17T05:06:46;9.85;;;6.72;;
13649;SDS011;6898;50.918;4.688;2022-10-17T05:09:14;8.98;;;6.82;;
13649;SDS011;6898;50.918;4.688;2022-10-17T05:11:43;8.30;;;6.72;;
13649;SDS011;6898;50.918;4.688;2022-10-17T05:14:11;11.40;;;6.60;;
13649;SDS011;6898;50.918;4.688;2022-10-17T05:16:39;9.27;;;6.90;;
13649;SDS011;6898;50.918;4.688;2022-10-17T05:19:08;8.82;;;6.50;;
13649;SDS011;6898;50.918;4.688;2022-10-17T05:21:38;8.23;;;6.43;;
13649;SDS011;6898;50.918;4.688;2022-10-17T05:24:06;9.82;;;6.70;;
13649;SDS011;6898;50.918;4.688;2022-10-17T05:26:35;7.65;;;6.20;;
13649;SDS011;6898;50.918;4.688;2022-10-17T05:29:03;10.40;;;6.50;;
13649;SDS011;6898;50.918;4.688;2022-10-17T05:31:32;8.45;;;6.25;;
13649;SDS011;6898;50.918;4.688;2022-10-17T05:34:02;7.38;;;6.32;;
13649;SDS011;6898;50.918;4.688;2022-10-17T05:36:32;8.00;;;6.30;;
13649;SDS011;6898;50.918;4.688;2022-10-17T05:39:02;8.68;;;6.30;;
13649;SDS011;6898;50.918;4.688;2022-10-17T05:41:30;8.48;;;6.20;;
13649;SDS011;6898;50.918;4.688;2022-10-17T05:43:59;7.38;;;6.28;;
13649;SDS011;6898;50.918;4.688;2022-10-17T05:46:28;9.13;;;6.53;;
13649;SDS011;6898;50.918;4.688;2022-10-17T05:48:56;7.63;;;6.25;;
13649;SDS011;6898;50.918;4.688;2022-10-17T05:51:25;10.88;;;6.45;;
13649;SDS011;6898;50.918;4.688;2022-10-17T05:53:53;9.52;;;6.03;;
13649;SDS011;6898;50.918;4.688;2022-10-17T05:56:23;7.78;;;5.97;;
13649;SDS011;6898;50.918;4.688;2022-10-17T05:58:51;7.10;;;6.15;;
13649;SDS011;6898;50.918;4.688;2022-10-17T06:01:21;7.80;;;6.25;;
13649;SDS011;6898;50.918;4.688;2022-10-17T06:03:50;7.90;;;6.00;;
13649;SDS011;6898;50.918;4.688;2022-10-17T06:06:18;7.43;;;5.70;;
13649;SDS011;6898;50.918;4.688;2022-10-17T06:08:47;8.25;;;5.85;;
13649;SDS011;6898;50.918;4.688;2022-10-17T06:11:15;8.95;;;6.18;;
13649;SDS011;6898;50.918;4.688;2022-10-17T06:13:45;8.07;;;5.85;;
13649;SDS011;6898;50.918;4.688;2022-10-17T06:16:13;9.13;;;5.80;;
13649;SDS011;6898;50.918;4.688;2022-10-17T06:18:42;8.32;;;5.70;;
13649;SDS011;6898;50.918;4.688;2022-10-17T06:21:10;7.07;;;5.55;;
13649;SDS011;6898;50.918;4.688;2022-10-17T06:23:39;7.10;;;5.80;;
13649;SDS011;6898;50.918;4.688;2022-10-17T06:26:07;9.55;;;5.60;;
13649;SDS011;6898;50.918;4.688;2022-10-17T06:35:53;7.47;;;5.80;;
13649;SDS011;6898;50.918;4.688;2022-10-17T06:38:38;8.65;;;5.97;;
13649;SDS011;6898;50.918;4.688;2022-10-17T06:41:17;8.63;;;5.65;;
13649;SDS011;6898;50.918;4.688;2022-10-17T06:43:45;7.03;;;5.60;;
13649;SDS011;6898;50.918;4.688;2022-10-17T06:46:15;7.90;;;5.45;;
13649;SDS011;6898;50.918;4.688;2022-10-17T06:48:43;7.32;;;5.43;;
13649;SDS011;6898;50.918;4.688;2022-10-17T06:51:13;9.63;;;5.57;;
13649;SDS011;6898;50.918;4.688;2022-10-17T06:53:42;8.33;;;4.90;;
13649;SDS011;6898;50.918;4.688;2022-10-17T06:56:10;9.00;;;5.28;;
13649;SDS011;6898;50.918;4.688;2022-10-17T06:58:39;7.83;;;5.30;;
13649;SDS011;6898;50.918;4.688;2022-10-17T07:01:08;6.93;;;5.68;;
13649;SDS011;6898;50.918;4.688;2022-10-17T07:03:36;9.82;;;5.57;;
13649;SDS011;6898;50.918;4.688;2022-10-17T07:06:05;7.65;;;5.30;;
13649;SDS011;6898;50.918;4.688;2022-10-17T07:08:40;7.97;;;5.28;;
13649;SDS011;6898;50.918;4.688;2022-10-17T07:11:09;7.43;;;5.53;;
13649;SDS011;6898;50.918;4.688;2022-10-17T07:13:38;7.63;;;5.63;;
13649;SDS011;6898;50.918;4.688;2022-10-17T07:16:07;7.40;;;5.40;;
13649;SDS011;6898;50.918;4.688;2022-10-17T07:18:36;8.32;;;5.40;;
13649;SDS011;6898;50.918;4.688;2022-10-17T07:21:04;8.27;;;5.40;;
13649;SDS011;6898;50.918;4.688;2022-10-17T07:23:34;7.68;;;5.40;;
13649;SDS011;6898;50.918;4.688;2022-10-17T07:26:05;7.18;;;4.85;;
13649;SDS011;6898;50.918;4.688;2022-10-17T07:28:34;6.32;;;4.53;;
13649;SDS011;6898;50.918;4.688;2022-10-17T07:31:03;7.50;;;4.90;;
13649;SDS011;6898;50.918;4.688;2022-10-17T07:33:31;7.07;;;5.18;;
13649;SDS011;6898;50.918;4.688;2022-10-17T07:36:00;7.60;;;4.80;;
13649;SDS011;6898;50.918;4.688;2022-10-17T07:38:29;7.97;;;5.30;;
13649;SDS011;6898;50.918;4.688;2022-10-17T07:40:58;8.30;;;5.22;;
13649;SDS011;6898;50.918;4.688;2022-10-17T07:43:29;9.20;;;5.38;;
13649;SDS011;6898;50.918;4.688;2022-10-17T07:45:57;7.80;;;5.50;;
13649;SDS011;6898;50.918;4.688;2022-10-17T07:48:27;8.70;;;5.40;;
13649;SDS011;6898;50.918;4.688;2022-10-17T07:50:56;8.60;;;5.35;;
13649;SDS011;6898;50.918;4.688;2022-10-17T07:53:24;10.10;;;5.47;;
13649;SDS011;6898;50.918;4.688;2022-10-17T07:55:53;8.77;;;5.80;;
13649;SDS011;6898;50.918;4.688;2022-10-17T07:58:21;9.20;;;5.78;;
13649;SDS011;6898;50.918;4.688;2022-10-17T08:00:52;10.77;;;5.72;;
13649;SDS011;6898;50.918;4.688;2022-10-17T08:03:21;8.82;;;5.93;;
13649;SDS011;6898;50.918;4.688;2022-10-17T08:05:49;7.80;;;5.55;;
13649;SDS011;6898;50.918;4.688;2022-10-17T08:08:17;10.20;;;6.15;;
13649;SDS011;6898;50.918;4.688;2022-10-17T08:10:46;9.40;;;6.00;;
13649;SDS011;6898;50.918;4.688;2022-10-17T08:13:15;9.70;;;5.93;;
13649;SDS011;6898;50.918;4.688;2022-10-17T08:15:45;10.10;;;6.07;;
13649;SDS011;6898;50.918;4.688;2022-10-17T08:18:15;9.70;;;6.10;;
13649;SDS011;6898;50.918;4.688;2022-10-17T08:20:44;9.82;;;6.15;;
13649;SDS011;6898;50.918;4.688;2022-10-17T08:23:14;10.32;;;6.15;;
13649;SDS011;6898;50.918;4.688;2022-10-17T08:25:42;8.10;;;6.20;;
13649;SDS011;6898;50.918;4.688;2022-10-17T08:28:10;9.50;;;6.45;;
13649;SDS011;6898;50.918;4.688;2022-10-17T08:30:39;9.70;;;6.60;;
13649;SDS011;6898;50.918;4.688;2022-10-17T08:33:07;9.90;;;6.35;;
13649;SDS011;6898;50.918;4.688;2022-10-17T08:35:46;27.27;;;8.88;;
13649;SDS011;6898;50.918;4.688;2022-10-17T08:38:37;14.70;;;8.93;;
13649;SDS011;6898;50.918;4.688;2022-10-17T08:41:33;15.93;;;8.88;;
13649;SDS011;6898;50.918;4.688;2022-10-17T08:44:13;11.30;;;8.30;;
13649;SDS011;6898;50.918;4.688;2022-10-17T08:46:54;13.35;;;8.57;;
13649;SDS011;6898;50.918;4.688;2022-10-17T08:49:30;11.65;;;8.90;;
13649;SDS011;6898;50.918;4.688;2022-10-17T08:52:14;11.05;;;8.63;;
13649;SDS011;6898;50.918;4.688;2022-10-17T08:54:44;11.38;;;8.75;;
13649;SDS011;6898;50.918;4.688;2022-10-17T08:57:16;13.77;;;9.38;;
13649;SDS011;6898;50.918;4.688;2022-10-17T08:59:48;12.03;;;9.57;;
13649;SDS011;6898;50.918;4.688;2022-10-17T09:07:56;13.43;;;10.13;;
13649;SDS011;6898;50.918;4.688;2022-10-17T09:10:28;15.52;;;10.25;;
13649;SDS011;6898;50.918;4.688;2022-10-17T09:13:05;13.10;;;10.63;;
13649;SDS011;6898;50.918;4.688;2022-10-17T09:15:40;13.93;;;10.77;;
13649;SDS011;6898;50.918;4.688;2022-10-17T09:18:15;16.73;;;10.63;;
13649;SDS011;6898;50.918;4.688;2022-10-17T09:20:47;14.57;;;10.25;;
13649;SDS011;6898;50.918;4.688;2022-10-17T09:23:21;13.38;;;10.27;;
13649;SDS011;6898;50.918;4.688;2022-10-17T09:25:53;16.42;;;10.85;;
13649;SDS011;6898;50.918;4.688;2022-10-17T09:28:24;14.75;;;10.85;;
13649;SDS011;6898;50.918;4.688;2022-10-17T09:30:55;14.15;;;10.60;;
13649;SDS011;6898;50.918;4.688;2022-10-17T09:33:25;14.93;;;10.55;;
13649;SDS011;6898;50.918;4.688;2022-10-17T09:35:59;16.47;;;10.97;;
13649;SDS011;6898;50.918;4.688;2022-10-17T09:38:35;17.27;;;10.65;;
13649;SDS011;6898;50.918;4.688;2022-10-17T09:41:05;12.00;;;10.65;;
13649;SDS011;6898;50.918;4.688;2022-10-17T09:43:53;12.80;;;10.65;;
13649;SDS011;6898;50.918;4.688;2022-10-17T09:46:28;13.32;;;10.38;;
13649;SDS011;6898;50.918;4.688;2022-10-17T09:49:00;13.65;;;10.68;;
13649;SDS011;6898;50.918;4.688;2022-10-17T09:51:30;15.07;;;10.90;;
13649;SDS011;6898;50.918;4.688;2022-10-17T09:54:02;14.10;;;10.77;;
13649;SDS011;6898;50.918;4.688;2022-10-17T09:56:33;15.75;;;11.38;;
13649;SDS011;6898;50.918;4.688;2022-10-17T09:59:28;16.17;;;11.80;;
13649;SDS011;6898;50.918;4.688;2022-10-17T10:02:06;14.82;;;11.40;;
13649;SDS011;6898;50.918;4.688;2022-10-17T10:04:40;15.73;;;11.40;;
13649;SDS011;6898;50.918;4.688;2022-10-17T10:07:34;14.90;;;11.70;;
13649;SDS011;6898;50.918;4.688;2022-10-17T10:10:06;16.73;;;13.38;;
13649;SDS011;6898;50.918;4.688;2022-10-17T10:12:35;17.48;;;11.48;;
13649;SDS011;6898;50.918;4.688;2022-10-17T10:17:52;14.60;;;10.73;;
13649;SDS011;6898;50.918;4.688;2022-10-17T10:20:25;15.45;;;10.70;;
13649;SDS011;6898;50.918;4.688;2022-10-17T10:23:11;15.63;;;10.40;;
13649;SDS011;6898;50.918;4.688;2022-10-17T10:25:51;16.33;;;10.75;;
13649;SDS011;6898;50.918;4.688;2022-10-17T10:28:22;15.30;;;10.50;;
13649;SDS011;6898;50.918;4.688;2022-10-17T10:30:52;15.63;;;13.18;;
13649;SDS011;6898;50.918;4.688;2022-10-17T10:34:00;13.60;;;10.13;;
13649;SDS011;6898;50.918;4.688;2022-10-17T10:36:42;16.25;;;10.82;;
13649;SDS011;6898;50.918;4.688;2022-10-17T10:39:15;14.27;;;10.77;;
13649;SDS011;6898;50.918;4.688;2022-10-17T10:41:49;13.82;;;11.27;;
13649;SDS011;6898;50.918;4.688;2022-10-17T10:44:17;14.32;;;10.88;;
13649;SDS011;6898;50.918;4.688;2022-10-17T10:46:49;14.85;;;10.80;;
13649;SDS011;6898;50.918;4.688;2022-10-17T10:49:32;13.70;;;11.10;;
13649;SDS011;6898;50.918;4.688;2022-10-17T10:52:01;15.65;;;12.00;;
13649;SDS011;6898;50.918;4.688;2022-10-17T10:54:33;14.43;;;11.70;;
13649;SDS011;6898;50.918;4.688;2022-10-17T10:57:05;15.85;;;11.85;;
13649;SDS011;6898;50.918;4.688;2022-10-17T10:59:39;15.30;;;12.02;;
13649;SDS011;6898;50.918;4.688;2022-10-17T11:02:14;14.60;;;12.07;;
13649;SDS011;6898;50.918;4.688;2022-10-17T11:04:45;16.98;;;12.70;;
13649;SDS011;6898;50.918;4.688;2022-10-17T11:07:15;18.95;;;12.55;;
13649;SDS011;6898;50.918;4.688;2022-10-17T11:09:51;16.67;;;12.45;;
13649;SDS011;6898;50.918;4.688;2022-10-17T11:12:24;14.63;;;12.15;;
13649;SDS011;6898;50.918;4.688;2022-10-17T11:14:56;16.02;;;12.27;;
13649;SDS011;6898;50.918;4.688;2022-10-17T11:17:27;15.68;;;12.00;;
13649;SDS011;6898;50.918;4.688;2022-10-17T11:20:02;14.27;;;11.45;;
13649;SDS011;6898;50.918;4.688;2022-10-17T11:22:32;13.52;;;11.15;;
13649;SDS011;6898;50.918;4.688;2022-10-17T11:25:03;15.43;;;10.63;;
13649;SDS011;6898;50.918;4.688;2022-10-17T11:27:34;12.73;;;10.57;;
13649;SDS011;6898;50.918;4.688;2022-10-17T11:30:03;18.20;;;10.25;;
13649;SDS011;6898;50.918;4.688;2022-10-17T11:32:33;15.00;;;9.60;;
13649;SDS011;6898;50.918;4.688;2022-10-17T11:35:04;12.32;;;9.10;;
13649;SDS011;6898;50.918;4.688;2022-10-17T11:37:35;12.38;;;8.27;;
13649;SDS011;6898;50.918;4.688;2022-10-17T11:40:17;11.63;;;7.97;;
13649;SDS011;6898;50.918;4.688;2022-10-17T11:42:51;11.93;;;7.80;;
13649;SDS011;6898;50.918;4.688;2022-10-17T11:45:20;11.77;;;7.90;;
13649;SDS011;6898;50.918;4.688;2022-10-17T11:47:50;11.77;;;8.35;;
13649;SDS011;6898;50.918;4.688;2022-10-17T11:50:21;9.90;;;8.17;;
13649;SDS011;6898;50.918;4.688;2022-10-17T11:53:11;11.38;;;7.85;;
13649;SDS011;6898;50.918;4.688;2022-10-17T11:55:41;12.75;;;8.35;;
13649;SDS011;6898;50.918;4.688;2022-10-17T11:58:24;12.13;;;8.30;;
13649;SDS011;6898;50.918;4.688;2022-10-17T12:00:59;9.82;;;7.93;;
13649;SDS011;6898;50.918;4.688;2022-10-17T12:03:30;9.25;;;8.05;;
13649;SDS011;6898;50.918;4.688;2022-10-17T12:06:03;12.82;;;8.10;;
13649;SDS011;6898;50.918;4.688;2022-10-17T12:08:38;11.80;;;8.30;;
13649;SDS011;6898;50.918;4.688;2022-10-17T12:11:10;12.88;;;8.48;;
13649;SDS011;6898;50.918;4.688;2022-10-17T12:13:47;13.88;;;8.45;;
13649;SDS011;6898;50.918;4.688;2022-10-17T12:16:36;12.65;;;8.40;;
13649;SDS011;6898;50.918;4.688;2022-10-17T12:19:15;12.77;;;8.20;;
13649;SDS011;6898;50.918;4.688;2022-10-17T12:21:53;12.45;;;8.77;;
13649;SDS011;6898;50.918;4.688;2022-10-17T12:24:27;10.37;;;7.63;;
13649;SDS011;6898;50.918;4.688;2022-10-17T12:26:56;10.13;;;7.95;;
13649;SDS011;6898;50.918;4.688;2022-10-17T12:29:27;14.25;;;8.68;;
13649;SDS011;6898;50.918;4.688;2022-10-17T12:32:08;11.20;;;8.50;;
13649;SDS011;6898;50.918;4.688;2022-10-17T12:34:37;10.45;;;8.07;;
13649;SDS011;6898;50.918;4.688;2022-10-17T12:37:08;13.35;;;8.43;;
13649;SDS011;6898;50.918;4.688;2022-10-17T12:39:40;12.73;;;8.55;;
13649;SDS011;6898;50.918;4.688;2022-10-17T12:44:57;11.43;;;8.57;;
13649;SDS011;6898;50.918;4.688;2022-10-17T12:47:26;12.85;;;8.90;;
13649;SDS011;6898;50.918;4.688;2022-10-17T12:49:58;15.02;;;8.73;;
13649;SDS011;6898;50.918;4.688;2022-10-17T12:55:11;13.30;;;9.13;;
13649;SDS011;6898;50.918;4.688;2022-10-17T12:57:41;13.30;;;9.70;;
13649;SDS011;6898;50.918;4.688;2022-10-17T13:00:14;15.05;;;9.57;;
13649;SDS011;6898;50.918;4.688;2022-10-17T13:02:44;14.70;;;10.20;;
13649;SDS011;6898;50.918;4.688;2022-10-17T13:05:15;13.85;;;10.20;;
13649;SDS011;6898;50.918;4.688;2022-10-17T13:07:44;14.95;;;10.23;;
13649;SDS011;6898;50.918;4.688;2022-10-17T13:10:18;15.32;;;10.73;;
13649;SDS011;6898;50.918;4.688;2022-10-17T13:12:47;14.63;;;11.20;;
13649;SDS011;6898;50.918;4.688;2022-10-17T13:15:20;14.93;;;11.18;;
13649;SDS011;6898;50.918;4.688;2022-10-17T13:17:57;13.93;;;10.85;;
13649;SDS011;6898;50.918;4.688;2022-10-17T13:20:26;15.35;;;11.80;;
13649;SDS011;6898;50.918;4.688;2022-10-17T13:22:57;15.55;;;11.30;;
13649;SDS011;6898;50.918;4.688;2022-10-17T13:25:26;15.43;;;12.93;;
13649;SDS011;6898;50.918;4.688;2022-10-17T13:28:06;13.00;;;10.45;;
13649;SDS011;6898;50.918;4.688;2022-10-17T13:30:36;38.78;;;34.70;;
13649;SDS011;6898;50.918;4.688;2022-10-17T13:33:15;17.58;;;13.50;;
13649;SDS011;6898;50.918;4.688;2022-10-17T13:35:45;34.10;;;30.63;;
13649;SDS011;6898;50.918;4.688;2022-10-17T13:38:30;26.70;;;22.17;;
13649;SDS011;6898;50.918;4.688;2022-10-17T13:41:01;33.08;;;29.70;;
13649;SDS011;6898;50.918;4.688;2022-10-17T13:43:48;14.52;;;11.63;;
13649;SDS011;6898;50.918;4.688;2022-10-17T13:46:20;19.10;;;16.30;;
13649;SDS011;6898;50.918;4.688;2022-10-17T13:49:08;13.82;;;11.05;;
13649;SDS011;6898;50.918;4.688;2022-10-17T13:51:40;22.02;;;19.70;;
13649;SDS011;6898;50.918;4.688;2022-10-17T13:54:16;18.40;;;16.48;;
13649;SDS011;6898;50.918;4.688;2022-10-17T13:56:45;34.53;;;30.95;;
13649;SDS011;6898;50.918;4.688;2022-10-17T13:59:18;37.72;;;31.30;;
13649;SDS011;6898;50.918;4.688;2022-10-17T14:01:49;9.88;;;8.68;;
13649;SDS011;6898;50.918;4.688;2022-10-17T14:04:18;17.77;;;12.85;;
13649;SDS011;6898;50.918;4.688;2022-10-17T14:06:46;21.40;;;17.15;;
13649;SDS011;6898;50.918;4.688;2022-10-17T14:09:21;11.25;;;9.32;;
13649;SDS011;6898;50.918;4.688;2022-10-17T14:11:57;15.50;;;12.68;;
13649;SDS011;6898;50.918;4.688;2022-10-17T14:14:27;12.18;;;10.00;;
13649;SDS011;6898;50.918;4.688;2022-10-17T14:17:12;12.68;;;9.77;;
13649;SDS011;6898;50.918;4.688;2022-10-17T14:19:41;11.73;;;9.33;;
13649;SDS011;6898;50.918;4.688;2022-10-17T14:22:14;14.30;;;12.50;;
13649;SDS011;6898;50.918;4.688;2022-10-17T14:24:46;16.17;;;13.35;;
13649;SDS011;6898;50.918;4.688;2022-10-17T14:27:26;14.30;;;12.80;;
13649;SDS011;6898;50.918;4.688;2022-10-17T14:33:49;9.03;;;6.90;;
13649;SDS011;6898;50.918;4.688;2022-10-17T14:36:42;8.02;;;6.78;;
13649;SDS011;6898;50.918;4.688;2022-10-17T14:39:16;7.90;;;6.95;;
13649;SDS011;6898;50.918;4.688;2022-10-17T14:41:45;8.85;;;7.03;;
13649;SDS011;6898;50.918;4.688;2022-10-17T14:44:17;10.20;;;8.18;;
13649;SDS011;6898;50.918;4.688;2022-10-17T14:46:47;8.60;;;6.00;;
13649;SDS011;6898;50.918;4.688;2022-10-17T14:49:20;7.80;;;6.30;;
13649;SDS011;6898;50.918;4.688;2022-10-17T14:54:40;7.68;;;5.82;;
13649;SDS011;6898;50.918;4.688;2022-10-17T14:57:44;8.40;;;6.00;;
13649;SDS011;6898;50.918;4.688;2022-10-17T15:00:03;7.95;;;5.72;;
13649;SDS011;6898;50.918;4.688;2022-10-17T15:02:31;9.23;;;5.80;;
13649;SDS011;6898;50.918;4.688;2022-10-17T15:05:01;8.18;;;6.10;;
13649;SDS011;6898;50.918;4.688;2022-10-17T15:07:31;8.55;;;5.60;;
13649;SDS011;6898;50.918;4.688;2022-10-17T15:09:59;8.60;;;5.43;;
13649;SDS011;6898;50.918;4.688;2022-10-17T15:12:27;6.18;;;5.30;;
13649;SDS011;6898;50.918;4.688;2022-10-17T15:14:56;7.50;;;5.40;;
13649;SDS011;6898;50.918;4.688;2022-10-17T15:17:26;7.65;;;6.85;;
13649;SDS011;6898;50.918;4.688;2022-10-17T15:19:55;9.70;;;6.65;;
13649;SDS011;6898;50.918;4.688;2022-10-17T15:22:25;6.82;;;5.50;;
13649;SDS011;6898;50.918;4.688;2022-10-17T15:24:53;7.15;;;4.82;;
13649;SDS011;6898;50.918;4.688;2022-10-17T15:27:22;6.28;;;5.03;;
13649;SDS011;6898;50.918;4.688;2022-10-17T15:29:51;8.13;;;5.45;;
13649;SDS011;6898;50.918;4.688;2022-10-17T15:32:20;10.65;;;5.53;;
13649;SDS011;6898;50.918;4.688;2022-10-17T15:34:48;6.77;;;5.10;;
13649;SDS011;6898;50.918;4.688;2022-10-17T15:37:25;7.85;;;5.10;;
13649;SDS011;6898;50.918;4.688;2022-10-17T15:40:00;7.22;;;5.15;;
13649;SDS011;6898;50.918;4.688;2022-10-17T15:42:29;7.50;;;5.18;;
13649;SDS011;6898;50.918;4.688;2022-10-17T15:44:57;7.43;;;5.25;;
13649;SDS011;6898;50.918;4.688;2022-10-17T15:47:29;9.05;;;5.13;;
13649;SDS011;6898;50.918;4.688;2022-10-17T15:49:59;6.38;;;4.90;;